Time;durP1;ratioP1;P1;durP2;ratioP2;P2;SDS_P1;SDS_P2;PMS_P1;PMS_P2;Temp;Humidity;BMP_temperature;BMP_pressure;BME280_temperature;BME280_humidity;BME280_pressure;Samples;Min_cycle;Max_cycle;Signal;HPM_P1;HPM_P2
2023/06/06 00:03:48;;;;;;;24.13;13.52;;;;;;;19.44;100.00;100994.50;20821614;28;20072;-75
2023/06/06 00:14:12;;;;;;;22.23;12.68;;;;;;;19.27;100.00;100995.72;20793304;28;20550;-74
2023/06/06 00:24:37;;;;;;;22.15;13.70;;;;;;;19.35;100.00;100993.78;20785421;28;20111;-75
2023/06/06 00:35:00;;;;;;;19.67;12.40;;;;;;;19.46;100.00;101003.44;20803999;28;20057;-75
2023/06/06 00:45:24;;;;;;;23.52;13.70;;;;;;;19.31;100.00;100992.06;20799075;28;20107;-75
2023/06/06 00:55:48;;;;;;;17.92;11.90;;;;;;;19.41;100.00;100981.19;20802401;28;20060;-74
2023/06/06 01:06:12;;;;;;;19.20;12.98;;;;;;;19.23;100.00;100984.16;20791032;28;20054;-74
2023/06/06 01:16:36;;;;;;;16.98;11.60;;;;;;;18.46;100.00;100983.47;20792085;28;20056;-75
2023/06/06 01:27:03;;;;;;;15.23;11.82;;;;;;;18.23;100.00;100989.13;20791882;28;22054;-75
2023/06/06 01:37:35;;;;;;;23.88;16.33;;;;;;;18.60;100.00;100991.34;20822702;28;20053;-75
2023/06/06 01:48:00;;;;;;;23.30;15.85;;;;;;;18.69;100.00;100992.13;20822092;28;20057;-74
2023/06/06 01:58:24;;;;;;;24.00;14.93;;;;;;;18.57;100.00;100992.31;20800139;28;20057;-75
2023/06/06 02:08:49;;;;;;;21.17;14.88;;;;;;;18.46;100.00;101009.31;20801616;28;20156;-75
2023/06/06 02:19:11;;;;;;;24.25;16.15;;;;;;;18.55;100.00;101001.19;20793243;28;20053;-75
2023/06/06 02:29:36;;;;;;;25.35;16.80;;;;;;;18.48;100.00;101004.84;20812695;28;20506;-74
2023/06/06 02:39:59;;;;;;;23.63;17.15;;;;;;;18.47;100.00;101001.28;20800116;28;20103;-75
2023/06/06 02:50:28;;;;;;;23.50;16.13;;;;;;;18.39;100.00;101008.53;20798072;28;20049;-75
2023/06/06 03:00:51;;;;;;;22.67;16.42;;;;;;;18.35;100.00;101000.56;20797236;28;20080;-75
2023/06/06 03:11:15;;;;;;;20.70;14.90;;;;;;;18.29;100.00;101017.56;20810865;28;20728;-75
2023/06/06 03:21:38;;;;;;;21.98;14.43;;;;;;;18.30;100.00;101020.22;20809436;28;20076;-75
2023/06/06 03:32:05;;;;;;;17.00;12.40;;;;;;;18.47;100.00;101022.69;20797026;28;20099;-75
2023/06/06 03:42:27;;;;;;;16.15;10.95;;;;;;;18.74;100.00;101026.81;20796235;28;20450;-75
2023/06/06 03:52:52;;;;;;;17.02;10.32;;;;;;;19.14;100.00;101044.97;20794365;28;20184;-75
2023/06/06 04:03:15;;;;;;;11.85;8.55;;;;;;;19.57;100.00;101054.13;20790949;28;20493;-75
2023/06/06 04:13:39;;;;;;;14.02;8.27;;;;;;;20.00;100.00;101043.56;20812589;28;20050;-76
2023/06/06 04:24:02;;;;;;;14.27;8.73;;;;;;;20.60;100.00;101043.31;20774901;28;20100;-74
2023/06/06 04:34:30;;;;;;;14.13;8.60;;;;;;;21.24;100.00;101044.56;20795921;28;20132;-75
2023/06/06 04:44:54;;;;;;;11.88;6.95;;;;;;;21.69;100.00;101045.22;20783749;28;20049;-75
2023/06/06 04:55:18;;;;;;;10.30;6.43;;;;;;;22.13;100.00;101047.66;20825934;28;20501;-75
2023/06/06 05:05:40;;;;;;;12.50;6.75;;;;;;;22.82;100.00;101049.28;20817034;28;20072;-75
2023/06/06 05:16:04;;;;;;;10.90;5.50;;;;;;;23.59;100.00;101055.84;20817250;28;20061;-75
2023/06/06 05:26:27;;;;;;;12.68;5.60;;;;;;;24.27;100.00;101049.91;20776404;28;20058;-74
2023/06/06 05:36:51;;;;;;;13.63;6.70;;;;;;;24.66;100.00;101052.94;20818806;28;20049;-75
2023/06/06 05:47:15;;;;;;;11.23;5.90;;;;;;;25.12;100.00;101052.97;20795442;28;20063;-75
2023/06/06 05:57:38;;;;;;;11.88;5.10;;;;;;;25.67;100.00;101056.13;20805550;28;20059;-76
2023/06/06 06:08:02;;;;;;;14.63;5.63;;;;;;;26.71;100.00;101071.41;20782954;28;20091;-76
2023/06/06 06:18:27;;;;;;;11.75;4.28;;;;;;;27.84;100.00;101075.81;20803097;28;20107;-75
2023/06/06 06:28:54;;;;;;;11.02;4.90;;;;;;;28.59;100.00;101056.50;20788221;28;20136;-74
2023/06/06 06:39:19;;;;;;;14.52;4.53;;;;;;;29.08;100.00;101067.41;20799826;28;20183;-75
2023/06/06 06:49:42;;;;;;;8.38;3.90;;;;;;;29.24;100.00;101069.16;20816126;28;20045;-75
2023/06/06 07:00:12;;;;;;;13.70;4.13;;;;;;;29.51;98.35;101057.69;20798696;28;20045;-75
2023/06/06 07:10:35;;;;;;;9.00;3.97;;;;;;;29.54;95.09;101046.59;20808342;28;20511;-75
2023/06/06 07:20:59;;;;;;;11.20;3.60;;;;;;;29.67;95.26;101045.81;20806524;28;20656;-75
2023/06/06 07:31:21;;;;;;;8.70;4.03;;;;;;;30.06;95.13;101064.34;20796807;28;20041;-76
2023/06/06 07:41:46;;;;;;;9.23;3.75;;;;;;;30.39;93.23;101050.50;20741941;28;20536;-75
2023/06/06 07:52:09;;;;;;;10.57;4.15;;;;;;;30.42;92.73;101054.91;20815283;28;20272;-75
2023/06/06 08:02:33;;;;;;;8.52;3.80;;;;;;;30.47;89.12;101052.75;20778408;28;20053;-75
2023/06/06 08:12:55;;;;;;;10.70;4.07;;;;;;;30.50;86.46;101068.97;20754435;28;20121;-76
2023/06/06 08:23:20;;;;;;;8.57;4.10;;;;;;;30.52;82.14;101064.31;20815613;28;20107;-76
2023/06/06 08:33:42;;;;;;;8.60;3.92;;;;;;;30.87;76.75;101053.88;20817820;28;20132;-75
2023/06/06 08:44:06;;;;;;;11.40;3.70;;;;;;;31.25;69.05;101056.84;20794998;28;20052;-75
2023/06/06 08:54:31;;;;;;;5.65;3.78;;;;;;;31.38;67.97;101079.63;20820550;28;20855;-75
2023/06/06 09:04:57;;;;;;;10.52;3.70;;;;;;;31.72;63.74;101074.69;20782505;28;20049;-75
2023/06/06 09:15:20;;;;;;;11.73;3.65;;;;;;;31.97;63.34;101093.88;20788493;28;20080;-75
2023/06/06 09:25:47;;;;;;;7.65;3.42;;;;;;;32.51;61.85;101086.47;20813443;28;20041;-75
2023/06/06 09:36:10;;;;;;;8.27;4.00;;;;;;;32.71;61.51;101082.34;20817950;28;20053;-75
2023/06/06 09:46:37;;;;;;;10.05;4.22;;;;;;;32.67;58.85;101075.38;20810489;28;20061;-75
2023/06/06 09:57:00;;;;;;;10.85;4.10;;;;;;;32.83;59.45;101084.19;20802719;28;20065;-75
2023/06/06 10:07:26;;;;;;;9.60;4.57;;;;;;;32.54;62.85;101082.66;20791343;28;20429;-76
2023/06/06 10:17:51;;;;;;;7.43;3.70;;;;;;;32.31;64.83;101082.41;20808923;28;20595;-75
2023/06/06 10:28:20;;;;;;;9.65;4.18;;;;;;;32.22;69.37;101096.75;20811829;28;20375;-76
2023/06/06 10:38:43;;;;;;;9.25;4.00;;;;;;;32.42;66.69;101092.63;20805033;28;20579;-77
2023/06/06 10:49:09;;;;;;;9.90;4.13;;;;;;;32.27;69.79;101085.47;20788827;28;20136;-75
2023/06/06 10:59:33;;;;;;;10.68;4.15;;;;;;;32.26;73.00;101092.78;20810908;28;20478;-76
2023/06/06 11:09:57;;;;;;;12.68;4.07;;;;;;;32.44;71.91;101090.63;20816131;28;20048;-73
2023/06/06 11:20:20;;;;;;;12.70;4.60;;;;;;;32.72;66.40;101086.84;20770280;28;20049;-75
2023/06/06 11:30:45;;;;;;;11.55;4.22;;;;;;;32.79;66.69;101077.22;20779414;28;20057;-73
2023/06/06 11:41:08;;;;;;;8.85;4.28;;;;;;;32.54;63.07;101063.53;20758636;28;20057;-73
2023/06/06 11:51:34;;;;;;;11.27;4.10;;;;;;;32.38;60.95;101052.78;20800728;28;20056;-75
2023/06/06 12:01:58;;;;;;;8.27;4.35;;;;;;;31.98;54.58;101041.88;20816350;28;20572;-74
2023/06/06 12:12:22;;;;;;;9.88;4.75;;;;;;;31.90;53.92;101035.22;20791632;28;20041;-73
2023/06/06 12:22:50;;;;;;;12.20;5.10;;;;;;;31.61;53.43;101029.00;20806105;28;20037;-73
2023/06/06 12:33:14;;;;;;;12.45;5.18;;;;;;;31.46;57.36;101019.94;20804859;28;20580;-73
2023/06/06 12:43:37;;;;;;;9.57;5.82;;;;;;;31.32;64.01;100997.28;20780383;28;20049;-73
2023/06/06 12:54:01;;;;;;;9.40;5.22;;;;;;;31.63;65.74;101005.22;20804100;28;20733;-73
2023/06/06 13:04:23;;;;;;;12.80;5.30;;;;;;;31.72;63.51;101003.69;20784398;28;20055;-74
2023/06/06 13:14:47;;;;;;;8.55;5.47;;;;;;;32.01;63.75;100999.81;20800213;28;20041;-73
2023/06/06 13:25:11;;;;;;;10.10;5.75;;;;;;;31.84;67.97;100994.63;20816893;28;20417;-73
2023/06/06 13:35:35;;;;;;;13.30;5.88;;;;;;;31.26;71.45;100999.44;20818251;28;20398;-74
2023/06/06 13:45:57;;;;;;;11.93;6.35;;;;;;;31.34;72.97;100996.22;20814462;28;20060;-74
2023/06/06 13:56:22;;;;;;;14.10;6.07;;;;;;;31.24;75.96;100995.94;20811515;28;20049;-74
2023/06/06 14:06:46;;;;;;;10.98;6.28;;;;;;;31.46;72.65;100997.22;20810567;28;20045;-74
2023/06/06 14:17:09;;;;;;;11.90;6.25;;;;;;;31.36;70.95;100994.25;20806193;28;20053;-75
2023/06/06 14:27:33;;;;;;;11.07;5.93;;;;;;;31.51;68.79;100979.56;20815342;28;20116;-74
2023/06/06 14:37:57;;;;;;;14.10;5.55;;;;;;;31.49;64.50;100981.53;20805313;28;20046;-74
2023/06/06 14:48:20;;;;;;;11.13;6.10;;;;;;;31.41;65.50;100986.63;20814331;28;20173;-74
2023/06/06 14:58:44;;;;;;;14.73;7.22;;;;;;;31.24;65.39;100974.09;20770803;28;20766;-74
2023/06/06 15:09:07;;;;;;;11.55;6.70;;;;;;;30.85;67.18;100980.31;20795397;28;20132;-74
2023/06/06 15:19:31;;;;;;;12.93;6.57;;;;;;;30.63;69.29;100973.66;20803389;28;20104;-73
2023/06/06 15:29:55;;;;;;;10.98;6.15;;;;;;;30.17;75.48;100983.84;20820227;28;20512;-74
2023/06/06 15:40:20;;;;;;;11.20;6.20;;;;;;;29.22;82.14;100973.16;20762021;28;20041;-74
2023/06/06 15:50:43;;;;;;;12.57;6.72;;;;;;;28.31;90.03;100974.72;20731695;28;20065;-73
2023/06/06 16:01:11;;;;;;;16.20;8.07;;;;;;;27.66;100.00;100990.81;20801348;28;20086;-73
2023/06/06 16:11:36;;;;;;;13.98;7.45;;;;;;;27.19;100.00;100979.63;20799066;28;20050;-72
2023/06/06 16:22:00;;;;;;;14.80;7.80;;;;;;;26.73;100.00;100983.66;20803945;28;20100;-73
2023/06/06 16:32:22;;;;;;;15.98;8.23;;;;;;;26.38;100.00;100990.75;20800251;28;20689;-73
2023/06/06 16:42:46;;;;;;;17.42;8.27;;;;;;;26.10;100.00;100990.22;20802019;28;20049;-74
2023/06/06 16:53:08;;;;;;;15.13;8.25;;;;;;;25.78;100.00;100978.13;20798526;28;20099;-74
2023/06/06 17:03:32;;;;;;;16.45;8.93;;;;;;;25.37;100.00;100983.44;20779357;28;20631;-74
2023/06/06 17:13:55;;;;;;;17.77;9.00;;;;;;;25.17;100.00;100980.69;20811858;28;20060;-73
2023/06/06 17:24:19;;;;;;;22.23;9.63;;;;;;;24.73;100.00;100962.66;20823255;28;20049;-73
2023/06/06 17:34:41;;;;;;;18.63;9.48;;;;;;;24.47;100.00;100952.88;20809877;28;20049;-73
2023/06/06 17:45:07;;;;;;;15.38;10.05;;;;;;;24.19;100.00;100948.53;20813112;28;20107;-75
2023/06/06 17:55:29;;;;;;;21.52;10.32;;;;;;;24.21;100.00;100956.56;20810109;28;20467;-75
2023/06/06 18:05:53;;;;;;;27.70;19.02;;;;;;;23.84;100.00;100965.09;20828352;28;20060;-74
2023/06/06 18:16:16;;;;;;;22.15;14.18;;;;;;;23.63;100.00;100961.31;20795891;28;20076;-74
2023/06/06 18:26:40;;;;;;;20.58;13.27;;;;;;;23.58;100.00;100965.13;20801500;28;20054;-74
2023/06/06 18:37:02;;;;;;;17.67;11.57;;;;;;;23.59;100.00;100985.75;20804373;28;20053;-73
2023/06/06 18:47:30;;;;;;;19.63;11.57;;;;;;;23.41;100.00;101006.09;20808707;28;20054;-74
2023/06/06 18:57:53;;;;;;;20.27;12.40;;;;;;;23.16;100.00;101003.34;20801138;28;20054;-73
2023/06/06 19:08:17;;;;;;;19.95;12.25;;;;;;;23.10;100.00;101016.13;20808859;28;20049;-73
2023/06/06 19:18:40;;;;;;;17.23;12.18;;;;;;;22.85;100.00;101011.50;20796063;28;20045;-74
2023/06/06 19:29:04;;;;;;;17.90;12.45;;;;;;;22.79;100.00;101008.97;20811155;28;20057;-74
2023/06/06 19:39:27;;;;;;;19.35;12.00;;;;;;;22.47;100.00;101015.31;20795674;28;20049;-74
2023/06/06 19:49:52;;;;;;;20.42;14.07;;;;;;;22.33;100.00;101013.94;20810192;28;20049;-74
2023/06/06 20:00:15;;;;;;;18.65;12.90;;;;;;;22.12;100.00;101021.69;20798324;28;21739;-74
2023/06/06 20:10:39;;;;;;;21.90;15.10;;;;;;;22.07;100.00;101033.50;20808099;28;20049;-74
2023/06/06 20:21:02;;;;;;;21.00;12.45;;;;;;;22.12;100.00;101026.22;20825933;28;20592;-74
2023/06/06 20:31:26;;;;;;;20.50;12.90;;;;;;;22.06;100.00;101029.03;20794016;28;20122;-74
2023/06/06 20:41:49;;;;;;;20.50;13.43;;;;;;;21.88;100.00;101033.97;20820216;28;20498;-74
2023/06/06 20:52:13;;;;;;;18.45;13.23;;;;;;;21.63;100.00;101050.75;20817828;28;20054;-75
2023/06/06 21:02:35;;;;;;;17.23;13.50;;;;;;;21.58;100.00;101058.94;20802646;28;20046;-74
2023/06/06 21:13:00;;;;;;;17.58;12.85;;;;;;;21.42;100.00;101060.22;20798957;28;20107;-74
2023/06/06 21:23:22;;;;;;;16.90;12.88;;;;;;;21.17;100.00;101056.38;20800257;28;20060;-74
2023/06/06 21:33:46;;;;;;;16.30;12.05;;;;;;;20.78;100.00;101058.13;20816387;28;20042;-74
2023/06/06 21:44:10;;;;;;;19.50;12.65;;;;;;;20.88;100.00;101059.66;20811376;28;20073;-74
2023/06/06 21:54:34;;;;;;;19.70;13.63;;;;;;;20.96;100.00;101055.91;20818311;28;20057;-74
2023/06/06 22:04:56;;;;;;;18.90;12.50;;;;;;;20.83;100.00;101053.53;20815356;28;20505;-74
2023/06/06 22:15:21;;;;;;;21.60;13.45;;;;;;;20.75;100.00;101048.31;20818915;28;20049;-74
2023/06/06 22:25:43;;;;;;;19.30;13.45;;;;;;;20.52;100.00;101039.88;20817694;28;20489;-74
2023/06/06 22:36:08;;;;;;;21.15;13.10;;;;;;;20.51;100.00;101051.53;20813046;28;20046;-74
2023/06/06 22:46:30;;;;;;;18.50;12.10;;;;;;;20.44;100.00;101058.81;20798346;28;20061;-74
2023/06/06 22:56:54;;;;;;;19.55;12.73;;;;;;;20.27;100.00;101051.09;20811068;28;20140;-74
2023/06/06 23:07:16;;;;;;;16.20;11.70;;;;;;;20.41;100.00;101049.97;20808951;28;20055;-74
2023/06/06 23:17:40;;;;;;;16.52;12.60;;;;;;;20.25;100.00;101043.97;20808476;28;20566;-73
2023/06/06 23:28:03;;;;;;;21.88;13.23;;;;;;;20.07;100.00;101039.84;20796495;28;20045;-74
2023/06/06 23:38:28;;;;;;;19.63;13.55;;;;;;;20.16;100.00;101025.38;20781985;28;20045;-74
2023/06/06 23:48:50;;;;;;;19.05;13.63;;;;;;;19.96;100.00;101019.50;20807744;28;20115;-74
2023/06/06 23:59:15;;;;;;;20.27;12.55;;;;;;;19.87;100.00;101010.75;20806548;28;20410;-74
